sensor_id;sensor_type;location;lat;lon;timestamp;pressure;altitude;pressure_sealevel;temperature;humidity
84647;BME280;74876;52.404;16.896;2024-02-26T00:00:09;99584.0;;;5.16;87.66
84647;BME280;74876;52.404;16.896;2024-02-26T00:15:09;99585.0;;;4.88;88.78
84647;BME280;74876;52.404;16.896;2024-02-26T00:30:09;99592.0;;;4.6;90.24
84647;BME280;74876;52.404;16.896;2024-02-26T00:45:09;99582.0;;;4.4;90.91
84647;BME280;74876;52.404;16.896;2024-02-26T01:00:09;99584.0;;;4.17;90.86
84647;BME280;74876;52.404;16.896;2024-02-26T01:15:09;99589.0;;;3.97;91.82
84647;BME280;74876;52.404;16.896;2024-02-26T01:30:09;99582.0;;;3.76;92.27
84647;BME280;74876;52.404;16.896;2024-02-26T01:50:10;99576.0;;;3.54;92.46
84647;BME280;74876;52.404;16.896;2024-02-26T02:05:10;99585.0;;;3.44;92.28
84647;BME280;74876;52.404;16.896;2024-02-26T02:20:10;99579.0;;;3.28;93.47
84647;BME280;74876;52.404;16.896;2024-02-26T02:35:10;99570.0;;;3.2;93.1
84647;BME280;74876;52.404;16.896;2024-02-26T02:55:09;99570.0;;;2.98;92.81
84647;BME280;74876;52.404;16.896;2024-02-26T03:10:09;99546.0;;;2.74;92.62
84647;BME280;74876;52.404;16.896;2024-02-26T03:25:09;99556.0;;;2.53;92.88
84647;BME280;74876;52.404;16.896;2024-02-26T03:40:09;99550.0;;;2.33;92.77
84647;BME280;74876;52.404;16.896;2024-02-26T04:00:10;99562.0;;;2.17;93.22
84647;BME280;74876;52.404;16.896;2024-02-26T04:15:10;99570.0;;;2.04;93.01
84647;BME280;74876;52.404;16.896;2024-02-26T04:30:09;99579.0;;;1.88;92.98
84647;BME280;74876;52.404;16.896;2024-02-26T04:45:09;99568.0;;;1.76;93.28
84647;BME280;74876;52.404;16.896;2024-02-26T05:00:09;99576.0;;;1.68;93.47
84647;BME280;74876;52.404;16.896;2024-02-26T05:15:09;99574.0;;;1.68;93.7
84647;BME280;74876;52.404;16.896;2024-02-26T05:30:09;99593.0;;;1.71;94.14
84647;BME280;74876;52.404;16.896;2024-02-26T05:45:09;99617.0;;;1.75;94.63
84647;BME280;74876;52.404;16.896;2024-02-26T06:00:09;99609.0;;;1.76;94.56
84647;BME280;74876;52.404;16.896;2024-02-26T06:15:09;99613.0;;;1.98;94.73
84647;BME280;74876;52.404;16.896;2024-02-26T06:30:09;99612.0;;;2.3;95.1
84647;BME280;74876;52.404;16.896;2024-02-26T06:45:09;99622.0;;;2.64;95.16
84647;BME280;74876;52.404;16.896;2024-02-26T07:00:09;99637.0;;;3.09;95.1
84647;BME280;74876;52.404;16.896;2024-02-26T07:15:09;99639.0;;;3.65;94.12
84647;BME280;74876;52.404;16.896;2024-02-26T07:30:09;99636.0;;;4.06;91.87
84647;BME280;74876;52.404;16.896;2024-02-26T07:45:09;99631.0;;;4.36;90.88
84647;BME280;74876;52.404;16.896;2024-02-26T08:05:10;99664.0;;;5.17;88.46
84647;BME280;74876;52.404;16.896;2024-02-26T08:20:09;99666.0;;;5.68;86.41
84647;BME280;74876;52.404;16.896;2024-02-26T08:35:09;99662.0;;;6.16;85.56
84647;BME280;74876;52.404;16.896;2024-02-26T08:50:09;99663.0;;;6.73;83.54
84647;BME280;74876;52.404;16.896;2024-02-26T09:05:09;99671.0;;;7.34;82.87
84647;BME280;74876;52.404;16.896;2024-02-26T09:20:09;99667.0;;;7.97;81.28
84647;BME280;74876;52.404;16.896;2024-02-26T09:35:09;99664.0;;;8.66;78.83
84647;BME280;74876;52.404;16.896;2024-02-26T09:50:09;99669.0;;;9.37;76.71
84647;BME280;74876;52.404;16.896;2024-02-26T10:05:09;99669.0;;;10.05;73.56
84647;BME280;74876;52.404;16.896;2024-02-26T10:20:09;99664.0;;;10.81;70.86
84647;BME280;74876;52.404;16.896;2024-02-26T10:35:09;99668.0;;;11.9;68.45
84647;BME280;74876;52.404;16.896;2024-02-26T10:50:09;99662.0;;;13.95;61.65
84647;BME280;74876;52.404;16.896;2024-02-26T11:05:09;99664.0;;;16.41;54.59
84647;BME280;74876;52.404;16.896;2024-02-26T11:20:09;99658.0;;;17.07;50.97
84647;BME280;74876;52.404;16.896;2024-02-26T11:35:09;99640.0;;;18.16;47.48
84647;BME280;74876;52.404;16.896;2024-02-26T11:50:09;99648.0;;;18.49;46.79
84647;BME280;74876;52.404;16.896;2024-02-26T12:05:09;99647.0;;;19.5;44.07
84647;BME280;74876;52.404;16.896;2024-02-26T12:20:09;99645.0;;;20.68;41.18
84647;BME280;74876;52.404;16.896;2024-02-26T12:35:09;99657.0;;;21.6;39.45
84647;BME280;74876;52.404;16.896;2024-02-26T12:50:09;99638.0;;;20.96;39.44
84647;BME280;74876;52.404;16.896;2024-02-26T13:05:09;99644.0;;;20.55;41.03
84647;BME280;74876;52.404;16.896;2024-02-26T13:20:10;99662.0;;;19.99;41.09
84647;BME280;74876;52.404;16.896;2024-02-26T13:35:10;99662.0;;;19.56;42.97
84647;BME280;74876;52.404;16.896;2024-02-26T13:50:10;99661.0;;;18.33;44.72
84647;BME280;74876;52.404;16.896;2024-02-26T14:05:10;99666.0;;;16.77;48.27
84647;BME280;74876;52.404;16.896;2024-02-26T14:20:10;99671.0;;;16.23;50.23
84647;BME280;74876;52.404;16.896;2024-02-26T14:35:10;99667.0;;;15.76;51.3
84647;BME280;74876;52.404;16.896;2024-02-26T14:50:09;99670.0;;;15.52;51.85
84647;BME280;74876;52.404;16.896;2024-02-26T15:05:09;99680.0;;;14.86;53.28
84647;BME280;74876;52.404;16.896;2024-02-26T15:20:09;99695.0;;;14.16;55.16
84647;BME280;74876;52.404;16.896;2024-02-26T15:35:09;99696.0;;;13.53;57.4
84647;BME280;74876;52.404;16.896;2024-02-26T15:50:09;99706.0;;;12.99;59.37
84647;BME280;74876;52.404;16.896;2024-02-26T16:05:09;99715.0;;;12.65;61.09
84647;BME280;74876;52.404;16.896;2024-02-26T16:20:09;99725.0;;;12.31;61.95
84647;BME280;74876;52.404;16.896;2024-02-26T16:35:09;99745.0;;;12.07;63.06
84647;BME280;74876;52.404;16.896;2024-02-26T16:50:09;99757.0;;;11.84;64.03
84647;BME280;74876;52.404;16.896;2024-02-26T17:05:09;99762.0;;;11.7;64.93
84647;BME280;74876;52.404;16.896;2024-02-26T17:20:09;99769.0;;;11.52;66.67
84647;BME280;74876;52.404;16.896;2024-02-26T17:35:09;99774.0;;;11.34;69.01
84647;BME280;74876;52.404;16.896;2024-02-26T17:50:09;99768.0;;;11.18;69.94
84647;BME280;74876;52.404;16.896;2024-02-26T18:05:09;99773.0;;;11.08;70.61
84647;BME280;74876;52.404;16.896;2024-02-26T18:20:09;99795.0;;;10.96;70.91
84647;BME280;74876;52.404;16.896;2024-02-26T18:35:09;99818.0;;;10.93;71.35
84647;BME280;74876;52.404;16.896;2024-02-26T18:50:09;99831.0;;;10.91;72.0
84647;BME280;74876;52.404;16.896;2024-02-26T19:05:09;99835.0;;;10.81;72.28
84647;BME280;74876;52.404;16.896;2024-02-26T19:20:09;99841.0;;;10.71;72.63
84647;BME280;74876;52.404;16.896;2024-02-26T19:35:09;99849.0;;;10.68;72.79
84647;BME280;74876;52.404;16.896;2024-02-26T19:50:10;99858.0;;;10.7;73.82
84647;BME280;74876;52.404;16.896;2024-02-26T20:05:09;99851.0;;;10.59;77.08
84647;BME280;74876;52.404;16.896;2024-02-26T20:20:10;99865.0;;;10.36;78.87
84647;BME280;74876;52.404;16.896;2024-02-26T20:35:09;99856.0;;;10.06;80.16
84647;BME280;74876;52.404;16.896;2024-02-26T20:50:10;99850.0;;;9.86;81.86
84647;BME280;74876;52.404;16.896;2024-02-26T21:05:09;99853.0;;;9.72;82.19
84647;BME280;74876;52.404;16.896;2024-02-26T21:30:10;99885.0;;;9.61;83.14
84647;BME280;74876;52.404;16.896;2024-02-26T21:45:10;99880.0;;;9.6;83.02
84647;BME280;74876;52.404;16.896;2024-02-26T22:00:10;99891.0;;;9.49;83.12
84647;BME280;74876;52.404;16.896;2024-02-26T22:15:10;99892.0;;;9.42;83.3
84647;BME280;74876;52.404;16.896;2024-02-26T22:35:09;99909.0;;;9.32;83.56
84647;BME280;74876;52.404;16.896;2024-02-26T22:50:09;99906.0;;;9.32;83.66
84647;BME280;74876;52.404;16.896;2024-02-26T23:05:09;99925.0;;;9.23;84.24
84647;BME280;74876;52.404;16.896;2024-02-26T23:20:09;99937.0;;;9.13;84.6
84647;BME280;74876;52.404;16.896;2024-02-26T23:40:10;99937.0;;;9.08;85.1
84647;BME280;74876;52.404;16.896;2024-02-26T23:55:10;99956.0;;;9.03;85.17
